createdAt,value
2023-04-15T00:01:13.013Z,97173.58
2023-04-15T00:03:40.867Z,97176.08
2023-04-15T00:06:08.643Z,97171.09
2023-04-15T00:08:36.168Z,97174.02
2023-04-15T00:11:03.865Z,97177.27
2023-04-15T00:13:34.317Z,97183.05
2023-04-15T00:16:02.408Z,97189.14
2023-04-15T00:18:30.158Z,97191.83
2023-04-15T00:20:57.809Z,97194.67
2023-04-15T00:23:25.757Z,97188.23
2023-04-15T00:25:53.276Z,97182.66
2023-04-15T00:28:20.855Z,97191.09
2023-04-15T00:30:48.498Z,97195.66
2023-04-15T00:33:16.072Z,97195.31
2023-04-15T00:35:43.692Z,97196.33
2023-04-15T00:38:11.486Z,97203.58
2023-04-15T00:40:39.190Z,97211.97
2023-04-15T00:43:06.901Z,97218.66
2023-04-15T00:45:34.543Z,97220.62
2023-04-15T00:48:02.418Z,97214.52
2023-04-15T00:50:30.037Z,97214.15
2023-04-15T00:52:57.601Z,97215.21
2023-04-15T00:55:25.216Z,97223.30
2023-04-15T00:57:52.909Z,97221.27
2023-04-15T01:00:21.062Z,97224.04
2023-04-15T01:02:49.195Z,97216.42
2023-04-15T01:05:17.424Z,97205.46
2023-04-15T01:07:44.981Z,97210.41
2023-04-15T01:10:12.559Z,97210.73
2023-04-15T01:12:40.539Z,97213.11
2023-04-15T01:15:08.642Z,97216.52
2023-04-15T01:17:36.460Z,97214.31
2023-04-15T01:20:04.439Z,97210.58
2023-04-15T01:22:34.289Z,97204.90
2023-04-15T01:25:06.865Z,97202.52
2023-04-15T01:27:35.611Z,97206.14
2023-04-15T01:30:03.291Z,97207.54
2023-04-15T01:32:30.962Z,97212.63
2023-04-15T01:34:58.506Z,97214.27
2023-04-15T01:37:26.216Z,97214.11
2023-04-15T01:39:53.765Z,97214.75
2023-04-15T01:42:21.702Z,97217.23
2023-04-15T01:44:49.273Z,97218.44
2023-04-15T01:47:16.841Z,97221.55
2023-04-15T01:49:44.389Z,97230.05
2023-04-15T01:52:11.954Z,97230.70
2023-04-15T01:54:39.478Z,97228.47
2023-04-15T01:57:07.031Z,97226.25
2023-04-15T01:59:34.613Z,97233.39
2023-04-15T02:02:02.176Z,97241.84
2023-04-15T02:04:29.932Z,97251.00
2023-04-15T02:06:57.455Z,97257.78
2023-04-15T02:09:25.097Z,97265.36
2023-04-15T02:11:52.765Z,97262.40
2023-04-15T02:14:20.300Z,97261.70
2023-04-15T02:16:47.946Z,97259.76
2023-04-15T02:19:15.572Z,97258.67
2023-04-15T02:21:43.154Z,97259.58
2023-04-15T02:24:10.649Z,97265.22
2023-04-15T02:26:38.185Z,97263.00
2023-04-15T02:29:06.238Z,97260.31
2023-04-15T02:31:33.829Z,97260.70
2023-04-15T02:34:01.468Z,97260.45
2023-04-15T02:36:28.998Z,97262.98
2023-04-15T02:38:56.525Z,97269.66
2023-04-15T02:41:24.058Z,97271.45
2023-04-15T02:43:51.556Z,97274.77
2023-04-15T02:46:19.128Z,97276.38
2023-04-15T02:48:46.707Z,97279.30
2023-04-15T02:51:14.693Z,97278.14
2023-04-15T02:53:42.901Z,97279.72
2023-04-15T02:56:10.452Z,97283.84
2023-04-15T02:58:38.262Z,97282.55
2023-04-15T03:04:46.460Z,97285.79
2023-04-15T03:07:14.231Z,97283.67
2023-04-15T03:09:41.779Z,97286.90
2023-04-15T03:12:09.379Z,97290.60
2023-04-15T03:14:36.993Z,97292.84
2023-04-15T03:17:04.709Z,97297.09
2023-04-15T03:19:32.310Z,97293.77
2023-04-15T03:21:59.857Z,97292.45
2023-04-15T03:24:27.496Z,97292.52
2023-04-15T03:26:55.176Z,97291.21
2023-04-15T03:29:22.818Z,97301.36
2023-04-15T03:31:50.451Z,97308.54
2023-04-15T03:34:18.078Z,97312.07
2023-04-15T03:36:46.402Z,97314.47
2023-04-15T03:39:14.055Z,97322.35
2023-04-15T03:41:41.700Z,97326.92
2023-04-15T03:44:09.383Z,97329.89
2023-04-15T03:46:36.926Z,97331.73
2023-04-15T03:49:06.951Z,97340.48
2023-04-15T03:51:34.527Z,97342.79
2023-04-15T03:54:02.062Z,97345.23
2023-04-15T03:56:29.560Z,97351.33
2023-04-15T03:58:57.107Z,97353.24
2023-04-15T04:01:24.743Z,97353.43
2023-04-15T04:03:52.477Z,97351.83
2023-04-15T04:06:20.268Z,97353.23
2023-04-15T04:08:47.785Z,97352.43
2023-04-15T04:11:15.322Z,97350.88
2023-04-15T04:13:42.837Z,97347.73
2023-04-15T04:16:10.523Z,97355.16
2023-04-15T04:18:38.124Z,97360.09
2023-04-15T04:21:05.960Z,97363.05
2023-04-15T04:23:33.557Z,97364.73
2023-04-15T04:26:01.116Z,97363.27
2023-04-15T04:28:28.675Z,97376.42
2023-04-15T04:30:56.371Z,97379.98
2023-04-15T04:33:24.004Z,97383.13
2023-04-15T04:35:51.566Z,97384.65
2023-04-15T04:38:19.086Z,97385.64
2023-04-15T04:40:46.673Z,97383.30
2023-04-15T04:43:14.272Z,97382.84
2023-04-15T04:45:41.927Z,97379.48
2023-04-15T04:48:09.452Z,97378.89
2023-04-15T04:50:37.340Z,97385.11
2023-04-15T04:53:04.952Z,97388.05
2023-04-15T04:55:32.487Z,97389.02
2023-04-15T04:58:00.184Z,97388.61
2023-04-15T05:00:27.690Z,97385.29
2023-04-15T05:02:55.469Z,97387.73
2023-04-15T05:05:23.199Z,97384.37
2023-04-15T05:07:50.849Z,97387.30
2023-04-15T05:10:18.462Z,97389.64
2023-04-15T05:12:46.014Z,97382.74
2023-04-15T05:15:13.621Z,97384.11
2023-04-15T05:17:41.222Z,97384.34
2023-04-15T05:20:09.097Z,97388.95
2023-04-15T05:22:36.998Z,97390.65
2023-04-15T05:25:04.988Z,97392.31
2023-04-15T05:27:32.569Z,97391.02
2023-04-15T05:30:00.173Z,97394.86
2023-04-15T05:32:27.734Z,97398.27
2023-04-15T05:34:55.297Z,97402.48
2023-04-15T05:37:22.807Z,97407.22
2023-04-15T05:39:50.357Z,97405.14
2023-04-15T05:42:17.911Z,97406.88
2023-04-15T05:44:45.470Z,97405.59
2023-04-15T05:47:13.022Z,97407.46
2023-04-15T05:49:40.605Z,97406.83
2023-04-15T05:52:08.111Z,97412.92
2023-04-15T05:54:35.622Z,97419.86
2023-04-15T05:57:03.254Z,97421.80
2023-04-15T05:59:30.754Z,97426.14
2023-04-15T06:01:58.331Z,97429.23
2023-04-15T06:04:26.050Z,97429.05
2023-04-15T06:06:53.776Z,97434.63
2023-04-15T06:09:21.368Z,97433.54
2023-04-15T06:11:48.874Z,97430.86
2023-04-15T06:14:16.413Z,97430.17
2023-04-15T06:16:44.098Z,97434.15
2023-04-15T06:19:11.667Z,97438.28
2023-04-15T06:21:39.234Z,97443.14
2023-04-15T06:24:07.016Z,97445.70
2023-04-15T06:26:34.595Z,97446.06
2023-04-15T06:29:02.310Z,97445.48
2023-04-15T06:31:30.405Z,97446.18
2023-04-15T06:33:57.971Z,97444.84
2023-04-15T06:36:25.508Z,97445.59
2023-04-15T06:38:53.030Z,97439.98
2023-04-15T06:41:20.599Z,97440.46
2023-04-15T06:43:48.213Z,97445.98
2023-04-15T06:46:15.819Z,97445.84
2023-04-15T06:48:43.433Z,97450.06
2023-04-15T06:51:10.958Z,97454.52
2023-04-15T06:53:38.534Z,97457.02
2023-04-15T06:56:07.774Z,97463.82
2023-04-15T06:58:35.388Z,97468.08
2023-04-15T07:01:03.048Z,97460.88
2023-04-15T07:03:32.636Z,97459.69
2023-04-15T07:06:00.517Z,97462.48
2023-04-15T07:08:28.028Z,97468.21
2023-04-15T07:10:55.546Z,97469.05
2023-04-15T07:13:23.113Z,97476.02
2023-04-15T07:15:50.658Z,97481.39
2023-04-15T07:18:18.196Z,97483.98
2023-04-15T07:20:45.755Z,97484.84
2023-04-15T07:23:13.286Z,97485.65
2023-04-15T07:25:40.861Z,97491.13
2023-04-15T07:28:08.408Z,97490.17
2023-04-15T07:30:36.040Z,97489.91
2023-04-15T07:33:03.846Z,97493.73
2023-04-15T07:35:31.516Z,97495.67
2023-04-15T07:37:59.034Z,97494.16
2023-04-15T07:40:26.668Z,97491.02
2023-04-15T07:42:54.481Z,97490.52
2023-04-15T07:45:22.005Z,97481.67
2023-04-15T07:47:49.681Z,97480.34
2023-04-15T07:50:17.541Z,97478.38
2023-04-15T07:52:45.203Z,97481.05
2023-04-15T07:55:13.313Z,97484.28
2023-04-15T07:57:40.817Z,97480.95
2023-04-15T08:00:08.922Z,97483.77
2023-04-15T08:02:38.192Z,97484.33
2023-04-15T08:05:07.828Z,97485.75
2023-04-15T08:07:37.469Z,97485.24
2023-04-15T08:10:05.797Z,97482.56
2023-04-15T08:12:33.355Z,97487.70
2023-04-15T08:15:00.923Z,97485.48
2023-04-15T08:17:28.521Z,97483.05
2023-04-15T08:19:56.154Z,97483.88
2023-04-15T08:22:23.670Z,97488.80
2023-04-15T08:24:51.255Z,97483.20
2023-04-15T08:27:19.137Z,97487.46
2023-04-15T08:29:46.696Z,97482.73
2023-04-15T08:32:14.382Z,97482.58
2023-04-15T08:34:42.073Z,97484.16
2023-04-15T08:37:10.845Z,97486.55
2023-04-15T08:39:39.069Z,97486.71
2023-04-15T08:42:12.733Z,97487.61
2023-04-15T08:44:40.788Z,97493.02
2023-04-15T08:47:09.086Z,97490.89
2023-04-15T08:49:40.065Z,97489.69
2023-04-15T08:52:09.186Z,97488.89
2023-04-15T08:54:37.894Z,97491.03
2023-04-15T08:57:06.286Z,97491.42
2023-04-15T08:59:33.886Z,97494.67
2023-04-15T09:02:02.657Z,97495.68
2023-04-15T09:04:30.373Z,97493.93
2023-04-15T09:06:57.929Z,97495.41
2023-04-15T09:09:25.505Z,97492.40
2023-04-15T09:11:53.120Z,97494.27
2023-04-15T09:14:20.624Z,97493.98
2023-04-15T09:16:57.868Z,97490.23
2023-04-15T09:19:25.650Z,97491.55
2023-04-15T09:21:58.910Z,97487.54
2023-04-15T09:24:36.448Z,97488.70
2023-04-15T09:27:04.439Z,97487.98
2023-04-15T09:29:32.073Z,97492.63
2023-04-15T09:32:13.687Z,97493.21
2023-04-15T09:34:41.281Z,97485.55
2023-04-15T09:37:08.817Z,97490.19
2023-04-15T09:39:46.930Z,97491.08
2023-04-15T09:42:14.533Z,97490.55
2023-04-15T09:44:42.092Z,97490.61
2023-04-15T09:47:09.649Z,97490.67
2023-04-15T09:49:37.247Z,97491.02
2023-04-15T09:52:06.455Z,97491.29
2023-04-15T09:54:38.482Z,97490.82
2023-04-15T09:57:08.149Z,97489.81
2023-04-15T09:59:36.026Z,97493.43
2023-04-15T10:02:06.442Z,97497.23
2023-04-15T10:04:40.765Z,97496.39
2023-04-15T10:07:12.293Z,97493.96
2023-04-15T10:09:40.500Z,97494.73
2023-04-15T10:12:08.992Z,97500.79
2023-04-15T10:14:38.872Z,97493.92
2023-04-15T10:17:08.050Z,97498.04
2023-04-15T10:19:37.493Z,97495.30
2023-04-15T10:22:06.287Z,97493.16
2023-04-15T10:24:34.209Z,97496.35
2023-04-15T10:27:03.660Z,97499.98
2023-04-15T10:29:31.478Z,97498.89
2023-04-15T10:31:59.911Z,97504.02
2023-04-15T10:34:27.945Z,97501.20
2023-04-15T10:36:56.722Z,97495.09
2023-04-15T10:39:33.524Z,97493.35
2023-04-15T10:42:19.733Z,97496.91
2023-04-15T10:44:51.455Z,97501.08
2023-04-15T10:47:21.468Z,97501.13
2023-04-15T10:49:57.877Z,97501.77
2023-04-15T10:52:27.552Z,97500.50
2023-04-15T10:55:18.880Z,97498.23
2023-04-15T10:57:46.486Z,97497.83
2023-04-15T11:00:15.785Z,97502.05
2023-04-15T11:02:54.095Z,97499.91
2023-04-15T11:05:42.777Z,97500.70
2023-04-15T11:08:11.643Z,97498.71
2023-04-15T11:10:39.138Z,97500.39
2023-04-15T11:13:09.634Z,97497.86
2023-04-15T11:15:39.820Z,97503.67
2023-04-15T11:18:19.236Z,97500.29
2023-04-15T11:20:59.128Z,97504.35
2023-04-15T11:23:32.473Z,97501.04
2023-04-15T11:26:01.853Z,97505.61
2023-04-15T11:28:31.202Z,97506.02
2023-04-15T11:31:05.565Z,97509.52
2023-04-15T11:33:33.140Z,97512.85
2023-04-15T11:36:01.225Z,97508.01
2023-04-15T11:38:29.052Z,97505.05
2023-04-15T11:40:57.005Z,97511.54
2023-04-15T11:43:24.656Z,97510.00
2023-04-15T11:46:00.380Z,97511.63
2023-04-15T11:48:30.162Z,97511.40
2023-04-15T11:51:02.741Z,97512.58
2023-04-15T11:53:56.645Z,97513.69
2023-04-15T11:56:26.341Z,97513.73
2023-04-15T11:58:56.985Z,97515.57
2023-04-15T12:01:35.989Z,97519.90
2023-04-15T12:04:11.621Z,97517.16
2023-04-15T12:06:39.354Z,97520.67
2023-04-15T12:09:06.984Z,97520.54
2023-04-15T12:11:45.057Z,97521.27
2023-04-15T12:14:15.874Z,97522.03
2023-04-15T12:16:49.775Z,97524.97
2023-04-15T12:19:24.691Z,97522.68
2023-04-15T12:21:58.266Z,97522.41
2023-04-15T12:24:28.265Z,97523.48
2023-04-15T12:27:01.945Z,97524.29
2023-04-15T12:29:31.101Z,97521.02
2023-04-15T12:32:04.740Z,97522.58
2023-04-15T12:34:37.384Z,97522.02
2023-04-15T12:37:07.275Z,97521.27
2023-04-15T12:39:39.805Z,97523.40
2023-04-15T12:42:08.493Z,97517.20
2023-04-15T12:44:37.236Z,97516.88
2023-04-15T12:47:05.116Z,97516.44
2023-04-15T12:49:33.107Z,97514.13
2023-04-15T12:52:02.515Z,97520.14
2023-04-15T12:54:31.057Z,97516.40
2023-04-15T12:56:59.651Z,97515.75
2023-04-15T12:59:28.617Z,97518.77
2023-04-15T13:01:56.284Z,97515.17
2023-04-15T13:04:24.131Z,97514.54
2023-04-15T13:06:51.764Z,97514.49
2023-04-15T13:09:19.473Z,97513.77
2023-04-15T13:11:47.064Z,97522.81
2023-04-15T13:14:14.579Z,97520.18
2023-04-15T13:16:42.155Z,97518.17
2023-04-15T13:19:09.701Z,97516.72
2023-04-15T13:21:37.211Z,97514.86
2023-04-15T13:24:05.185Z,97516.48
2023-04-15T13:26:32.871Z,97515.76
2023-04-15T13:29:00.890Z,97516.77
2023-04-15T13:31:28.678Z,97521.20
2023-04-15T13:33:57.611Z,97512.09
2023-04-15T13:36:25.271Z,97516.77
2023-04-15T13:38:52.846Z,97518.51
2023-04-15T13:41:20.379Z,97523.27
2023-04-15T13:43:47.953Z,97521.39
2023-04-15T13:46:15.964Z,97525.79
2023-04-15T13:48:43.584Z,97529.74
2023-04-15T13:51:11.278Z,97526.81
2023-04-15T13:53:39.762Z,97529.52
2023-04-15T13:56:08.354Z,97527.88
2023-04-15T13:58:37.226Z,97528.83
2023-04-15T14:01:06.463Z,97529.22
2023-04-15T14:03:35.359Z,97532.20
2023-04-15T14:06:03.097Z,97527.55
2023-04-15T14:08:30.660Z,97533.96
2023-04-15T14:10:58.256Z,97530.64
2023-04-15T14:13:25.893Z,97530.12
2023-04-15T14:15:53.564Z,97529.93
2023-04-15T14:18:21.219Z,97529.48
2023-04-15T14:20:48.808Z,97535.94
2023-04-15T14:23:16.339Z,97536.73
2023-04-15T14:25:45.067Z,97535.12
2023-04-15T14:28:14.623Z,97538.75
2023-04-15T14:30:42.434Z,97543.02
2023-04-15T14:33:10.089Z,97548.52
2023-04-15T14:35:37.837Z,97554.63
2023-04-15T14:38:05.466Z,97558.73
2023-04-15T14:40:33.629Z,97560.65
2023-04-15T14:43:01.182Z,97563.02
2023-04-15T14:45:30.395Z,97562.14
2023-04-15T14:47:59.341Z,97564.10
2023-04-15T14:50:26.960Z,97563.77
2023-04-15T14:52:54.465Z,97563.23
2023-04-15T14:55:22.110Z,97561.64
2023-04-15T14:57:49.737Z,97560.29
2023-04-15T15:00:17.459Z,97563.63
2023-04-15T15:02:45.139Z,97561.84
2023-04-15T15:05:13.024Z,97564.73
2023-04-15T15:07:40.748Z,97565.11
2023-04-15T15:10:08.996Z,97568.97
2023-04-15T15:12:36.605Z,97570.86
2023-04-15T15:15:09.208Z,97565.86
2023-04-15T15:17:43.661Z,97569.13
2023-04-15T15:20:11.481Z,97572.29
2023-04-15T15:22:39.014Z,97569.20
2023-04-15T15:25:06.795Z,97572.32
2023-04-15T15:27:35.487Z,97572.73
2023-04-15T15:30:05.085Z,97581.84
2023-04-15T15:32:32.687Z,97582.48
2023-04-15T15:35:00.272Z,97580.95
2023-04-15T15:37:28.032Z,97578.98
2023-04-15T15:39:55.544Z,97577.59
2023-04-15T15:42:23.263Z,97580.26
2023-04-15T15:44:50.838Z,97578.33
2023-04-15T15:47:19.160Z,97583.54
2023-04-15T15:49:46.758Z,97584.89
2023-04-15T15:52:14.375Z,97590.72
2023-04-15T15:54:41.928Z,97585.98
2023-04-15T15:57:09.493Z,97587.83
2023-04-15T15:59:37.046Z,97588.64
2023-04-15T16:02:04.802Z,97591.64
2023-04-15T16:04:32.668Z,97597.10
2023-04-15T16:07:00.421Z,97598.19
2023-04-15T16:09:27.964Z,97593.80
2023-04-15T16:11:55.617Z,97591.27
2023-04-15T16:14:24.172Z,97590.52
2023-04-15T16:16:52.626Z,97594.76
2023-04-15T16:19:21.245Z,97589.30
2023-04-15T16:21:48.865Z,97594.55
2023-04-15T16:24:16.420Z,97592.50
2023-04-15T16:26:43.933Z,97594.74
2023-04-15T16:29:11.470Z,97594.55
2023-04-15T16:31:39.152Z,97596.98
2023-04-15T16:34:07.084Z,97598.73
2023-04-15T16:36:35.220Z,97603.30
2023-04-15T16:39:03.060Z,97608.95
2023-04-15T16:41:32.604Z,97611.10
2023-04-15T16:44:02.084Z,97618.08
2023-04-15T16:46:29.848Z,97621.85
2023-04-15T16:48:57.435Z,97631.94
2023-04-15T16:51:25.001Z,97637.41
2023-04-15T16:53:53.035Z,97652.77
2023-04-15T16:56:20.605Z,97673.77
2023-04-15T16:58:48.157Z,97676.89
2023-04-15T17:01:15.762Z,97688.45
2023-04-15T17:03:43.737Z,97694.33
2023-04-15T17:06:11.652Z,97703.45
2023-04-15T17:08:39.331Z,97708.21
2023-04-15T17:11:07.256Z,97711.56
2023-04-15T17:13:34.860Z,97710.89
2023-04-15T17:16:02.651Z,97717.55
2023-04-15T17:18:30.280Z,97725.15
2023-04-15T17:20:57.939Z,97725.75
2023-04-15T17:23:25.991Z,97728.59
2023-04-15T17:25:53.710Z,97730.71
2023-04-15T17:28:21.328Z,97729.89
2023-04-15T17:30:49.009Z,97731.38
2023-04-15T17:33:57.504Z,97737.31
2023-04-15T17:36:04.870Z,97747.24
2023-04-15T17:38:32.525Z,97753.83
2023-04-15T17:41:00.146Z,97753.52
2023-04-15T17:43:27.701Z,97754.85
2023-04-15T17:45:56.542Z,97755.77
2023-04-15T17:48:25.641Z,97752.80
2023-04-15T17:50:53.222Z,97753.10
2023-04-15T17:53:20.852Z,97752.59
2023-04-15T17:55:48.396Z,97754.98
2023-04-15T17:58:16.137Z,97760.92
2023-04-15T18:00:43.693Z,97762.38
2023-04-15T18:03:11.548Z,97771.92
2023-04-15T18:05:41.365Z,97783.52
2023-04-15T18:08:10.514Z,97791.05
2023-04-15T18:10:39.270Z,97796.70
2023-04-15T18:13:07.166Z,97800.25
2023-04-15T18:15:35.078Z,97805.98
2023-04-15T18:18:02.803Z,97816.32
2023-04-15T18:20:30.381Z,97821.07
2023-04-15T18:22:58.224Z,97823.44
2023-04-15T18:25:25.943Z,97826.77
2023-04-15T18:27:54.912Z,97833.13
2023-04-15T18:30:22.961Z,97841.11
2023-04-15T18:32:50.871Z,97843.59
2023-04-15T18:35:18.784Z,97847.29
2023-04-15T18:37:46.338Z,97846.04
2023-04-15T18:40:13.950Z,97845.63
2023-04-15T18:42:41.600Z,97842.05
2023-04-15T18:45:09.550Z,97845.04
2023-04-15T18:47:37.458Z,97846.88
2023-04-15T18:50:05.888Z,97846.47
2023-04-15T18:52:33.592Z,97845.27
2023-04-15T18:55:01.248Z,97843.54
2023-04-15T18:57:34.791Z,97839.46
2023-04-15T19:00:03.367Z,97837.29
2023-04-15T19:02:31.143Z,97840.20
2023-04-15T19:04:59.382Z,97844.99
2023-04-15T19:07:26.978Z,97852.16
2023-04-15T19:09:54.556Z,97852.78
2023-04-15T19:12:22.391Z,97851.84
2023-04-15T19:14:50.325Z,97856.63
2023-04-15T19:17:17.980Z,97861.27
2023-04-15T19:19:45.543Z,97863.97
2023-04-15T19:22:13.395Z,97871.10
2023-04-15T19:24:41.250Z,97869.73
2023-04-15T19:27:09.163Z,97873.16
2023-04-15T19:29:37.126Z,97874.34
2023-04-15T19:32:04.956Z,97877.06
2023-04-15T19:34:32.855Z,97878.88
2023-04-15T19:37:00.688Z,97881.39
2023-04-15T19:39:28.263Z,97879.98
2023-04-15T19:41:55.894Z,97883.08
2023-04-15T19:44:23.430Z,97882.40
2023-04-15T19:46:52.452Z,97887.16
2023-04-15T19:49:20.308Z,97886.50
2023-04-15T19:51:49.390Z,97886.38
2023-04-15T19:54:16.976Z,97888.64
2023-04-15T19:56:44.550Z,97888.84
2023-04-15T19:59:12.175Z,97889.33
2023-04-15T20:01:39.734Z,97895.81
2023-04-15T20:04:07.500Z,97895.05
2023-04-15T20:06:35.213Z,97896.23
2023-04-15T20:09:03.418Z,97895.80
2023-04-15T20:12:05.122Z,97893.52
2023-04-15T20:14:18.929Z,97892.81
2023-04-15T20:16:46.579Z,97896.91
2023-04-15T20:19:14.271Z,97903.17
2023-04-15T20:21:42.092Z,97906.50
2023-04-15T20:24:09.932Z,97913.48
2023-04-15T20:26:37.571Z,97915.95
2023-04-15T20:29:05.460Z,97920.57
2023-04-15T20:31:33.229Z,97921.10
2023-04-15T20:34:00.821Z,97920.23
2023-04-15T20:36:28.372Z,97924.64
2023-04-15T20:38:55.879Z,97919.89
2023-04-15T20:41:23.426Z,97921.70
2023-04-15T20:43:51.037Z,97917.04
2023-04-15T20:46:21.554Z,97915.94
2023-04-15T20:48:49.325Z,97917.71
2023-04-15T20:51:16.914Z,97920.73
2023-04-15T20:53:44.461Z,97924.45
2023-04-15T20:56:12.027Z,97926.56
2023-04-15T20:58:39.596Z,97926.08
2023-04-15T21:01:07.416Z,97931.88
2023-04-15T21:03:35.180Z,97931.95
2023-04-15T21:06:02.885Z,97936.69
2023-04-15T21:08:30.424Z,97942.06
2023-04-15T21:10:58.067Z,97943.80
2023-04-15T21:13:25.653Z,97945.02
2023-04-15T21:15:53.195Z,97947.39
2023-04-15T21:18:22.019Z,97951.67
2023-04-15T21:20:57.546Z,97952.54
2023-04-15T21:23:26.392Z,97954.39
2023-04-15T21:25:54.027Z,97956.45
2023-04-15T21:28:22.241Z,97955.38
2023-04-15T21:30:49.917Z,97961.98
2023-04-15T21:33:17.939Z,97960.85
2023-04-15T21:35:45.562Z,97964.71
2023-04-15T21:38:13.162Z,97967.40
2023-04-15T21:40:40.927Z,97978.95
2023-04-15T21:43:08.716Z,97982.37
2023-04-15T21:45:36.597Z,97985.06
2023-04-15T21:48:07.834Z,97988.60
2023-04-15T21:50:37.267Z,97990.19
2023-04-15T21:53:07.665Z,97990.70
2023-04-15T21:55:35.624Z,97990.92
2023-04-15T21:58:03.223Z,97992.59
2023-04-15T22:00:30.727Z,97995.02
2023-04-15T22:02:58.374Z,97998.25
2023-04-15T22:05:26.005Z,98007.64
2023-04-15T22:07:53.517Z,98016.98
2023-04-15T22:10:21.145Z,98015.89
2023-04-15T22:12:48.692Z,98016.15
2023-04-15T22:15:16.239Z,98019.23
2023-04-15T22:17:43.775Z,98022.83
2023-04-15T22:20:11.344Z,98021.66
2023-04-15T22:22:44.173Z,98023.14
2023-04-15T22:25:12.374Z,98024.95
2023-04-15T22:27:39.928Z,98030.05
2023-04-15T22:30:08.265Z,98031.94
2023-04-15T22:32:36.016Z,98036.08
2023-04-15T22:35:03.976Z,98034.84
2023-04-15T22:37:31.588Z,98036.52
2023-04-15T22:39:59.301Z,98035.86
2023-04-15T22:42:27.302Z,98038.19
2023-04-15T22:44:54.857Z,98042.73
2023-04-15T22:47:22.437Z,98047.58
2023-04-15T22:49:49.950Z,98050.73
2023-04-15T22:52:27.195Z,98056.20
2023-04-15T22:54:57.476Z,98061.05
2023-04-15T22:57:25.092Z,98063.96
2023-04-15T22:59:52.662Z,98069.65
2023-04-15T23:02:20.322Z,98071.45
2023-04-15T23:04:48.193Z,98067.01
2023-04-15T23:07:15.782Z,98074.39
2023-04-15T23:09:43.348Z,98070.58
2023-04-15T23:12:11.008Z,98078.35
2023-04-15T23:14:38.565Z,98076.31
2023-04-15T23:17:06.252Z,98082.07
2023-04-15T23:19:33.828Z,98079.87
2023-04-15T23:22:01.443Z,98084.79
2023-04-15T23:24:29.008Z,98081.58
2023-04-15T23:26:56.545Z,98082.63
2023-04-15T23:29:24.118Z,98083.19
2023-04-15T23:31:51.648Z,98085.10
2023-04-15T23:34:19.327Z,98087.98
2023-04-15T23:36:46.881Z,98092.04
2023-04-15T23:39:14.497Z,98094.04
2023-04-15T23:41:42.091Z,98097.02
2023-04-15T23:44:09.689Z,98095.79
2023-04-15T23:46:37.305Z,98094.21
2023-04-15T23:49:04.893Z,98096.02
2023-04-15T23:51:32.448Z,98098.80
2023-04-15T23:54:00.056Z,98095.29
2023-04-15T23:56:27.638Z,98098.02
2023-04-15T23:58:55.196Z,98094.95
